EDDS/STR METAR and TAF weather

Enter ICAO airport designator
Station Type Date Time Source
EDDS METAR 2020/03/28 21:20 UTC NOAA

EDDS 282120Z 36007KT CAVOK 10/01 Q1017


Station Type Date Time Source
EDDS Decoded METAR 2020/03/28 21:20 UTC NOAA

Stuttgart-Echterdingen, Germany (EDDS) 48-41N 009-13E 391M
Mar 28, 2020 - 05:20 PM EDT / 2020.03.28 2120 UTC
Wind: from the N (360 degrees) at 8 MPH (7 KT):0
Visibility: greater than 7 mile(s):0
Temperature: 50 F (10 C)
Dew Point: 33 F (1 C)
Relative Humidity: 53%
Pressure (altimeter): 30.03 in. Hg (1017 hPa)
ob: EDDS 282120Z 36007KT CAVOK 10/01 Q1017
cycle: 21

Station Type Date Time Source
EDDS TAF 2020/03/28 18:27 UTC NOAA

TAF EDDS 281700Z 2818/2918 34008KT CAVOK PROB30
TEMPO 2904/2909 BKN012

Example: see airport list